sensor_id;sensor_type;location;lat;lon;timestamp;temperature;humidity
31046;DHT22;17711;54.018;9.300;2022-09-04T00:02:09;16.10;99.90
31046;DHT22;17711;54.018;9.300;2022-09-04T00:04:48;16.00;99.90
31046;DHT22;17711;54.018;9.300;2022-09-04T00:07:25;16.00;99.90
31046;DHT22;17711;54.018;9.300;2022-09-04T00:10:03;16.10;99.90
31046;DHT22;17711;54.018;9.300;2022-09-04T00:12:45;16.10;99.90
31046;DHT22;17711;54.018;9.300;2022-09-04T00:15:18;16.10;99.90
31046;DHT22;17711;54.018;9.300;2022-09-04T00:17:52;16.10;99.90
31046;DHT22;17711;54.018;9.300;2022-09-04T00:20:35;16.10;99.90
31046;DHT22;17711;54.018;9.300;2022-09-04T00:23:15;16.00;99.90
31046;DHT22;17711;54.018;9.300;2022-09-04T00:25:54;15.90;99.90
31046;DHT22;17711;54.018;9.300;2022-09-04T00:28:33;15.90;99.90
31046;DHT22;17711;54.018;9.300;2022-09-04T00:31:09;15.90;99.90
31046;DHT22;17711;54.018;9.300;2022-09-04T00:33:45;15.80;99.90
31046;DHT22;17711;54.018;9.300;2022-09-04T00:36:18;15.80;99.90
31046;DHT22;17711;54.018;9.300;2022-09-04T00:38:52;15.80;99.90
31046;DHT22;17711;54.018;9.300;2022-09-04T00:41:26;15.70;99.90
31046;DHT22;17711;54.018;9.300;2022-09-04T00:44:24;15.70;99.90
31046;DHT22;17711;54.018;9.300;2022-09-04T00:47:14;15.60;99.90
31046;DHT22;17711;54.018;9.300;2022-09-04T00:50:12;15.60;99.90
31046;DHT22;17711;54.018;9.300;2022-09-04T00:52:59;15.60;99.90
31046;DHT22;17711;54.018;9.300;2022-09-04T00:55:57;15.50;99.90
31046;DHT22;17711;54.018;9.300;2022-09-04T00:58:46;15.50;99.90
31046;DHT22;17711;54.018;9.300;2022-09-04T01:01:21;15.50;99.90
31046;DHT22;17711;54.018;9.300;2022-09-04T01:07:07;15.40;99.90
31046;DHT22;17711;54.018;9.300;2022-09-04T01:12:44;15.30;99.90
31046;DHT22;17711;54.018;9.300;2022-09-04T01:15:19;15.30;99.90
31046;DHT22;17711;54.018;9.300;2022-09-04T01:18:00;15.30;99.90
31046;DHT22;17711;54.018;9.300;2022-09-04T01:20:42;15.20;99.90
31046;DHT22;17711;54.018;9.300;2022-09-04T01:23:29;15.20;99.90
31046;DHT22;17711;54.018;9.300;2022-09-04T01:26:06;15.10;99.90
31046;DHT22;17711;54.018;9.300;2022-09-04T01:28:51;15.10;99.90
31046;DHT22;17711;54.018;9.300;2022-09-04T01:31:34;15.10;99.90
31046;DHT22;17711;54.018;9.300;2022-09-04T01:34:18;15.10;99.90
31046;DHT22;17711;54.018;9.300;2022-09-04T01:36:57;15.10;99.90
31046;DHT22;17711;54.018;9.300;2022-09-04T01:39:30;15.10;99.90
31046;DHT22;17711;54.018;9.300;2022-09-04T01:42:10;15.20;99.90
31046;DHT22;17711;54.018;9.300;2022-09-04T01:44:41;15.10;99.90
31046;DHT22;17711;54.018;9.300;2022-09-04T01:47:14;15.10;99.90
31046;DHT22;17711;54.018;9.300;2022-09-04T01:49:47;15.10;99.90
31046;DHT22;17711;54.018;9.300;2022-09-04T01:52:35;15.10;99.90
31046;DHT22;17711;54.018;9.300;2022-09-04T01:55:13;15.10;99.90
31046;DHT22;17711;54.018;9.300;2022-09-04T01:57:57;15.00;99.90
31046;DHT22;17711;54.018;9.300;2022-09-04T02:00:33;14.90;99.90
31046;DHT22;17711;54.018;9.300;2022-09-04T02:03:11;14.90;99.90
31046;DHT22;17711;54.018;9.300;2022-09-04T02:05:53;15.00;99.90
31046;DHT22;17711;54.018;9.300;2022-09-04T02:08:37;14.90;99.90
31046;DHT22;17711;54.018;9.300;2022-09-04T02:11:14;14.90;99.90
31046;DHT22;17711;54.018;9.300;2022-09-04T02:14:00;14.80;99.90
31046;DHT22;17711;54.018;9.300;2022-09-04T02:16:43;14.70;99.90
31046;DHT22;17711;54.018;9.300;2022-09-04T02:19:23;14.70;99.90
31046;DHT22;17711;54.018;9.300;2022-09-04T02:22:00;14.80;99.90
31046;DHT22;17711;54.018;9.300;2022-09-04T02:24:35;14.70;99.90
31046;DHT22;17711;54.018;9.300;2022-09-04T02:27:09;14.70;99.90
31046;DHT22;17711;54.018;9.300;2022-09-04T02:29:45;14.70;99.90
31046;DHT22;17711;54.018;9.300;2022-09-04T02:32:18;14.60;99.90
31046;DHT22;17711;54.018;9.300;2022-09-04T02:34:53;14.60;99.90
31046;DHT22;17711;54.018;9.300;2022-09-04T02:37:30;14.60;99.90
31046;DHT22;17711;54.018;9.300;2022-09-04T02:40:08;14.50;99.90
31046;DHT22;17711;54.018;9.300;2022-09-04T02:42:50;14.50;99.90
31046;DHT22;17711;54.018;9.300;2022-09-04T02:45:32;14.50;99.90
31046;DHT22;17711;54.018;9.300;2022-09-04T02:48:09;14.40;99.90
31046;DHT22;17711;54.018;9.300;2022-09-04T02:50:53;14.40;99.90
31046;DHT22;17711;54.018;9.300;2022-09-04T02:53:31;14.40;99.90
31046;DHT22;17711;54.018;9.300;2022-09-04T02:56:12;14.40;99.90
31046;DHT22;17711;54.018;9.300;2022-09-04T02:58:53;14.40;99.90
31046;DHT22;17711;54.018;9.300;2022-09-04T03:01:49;14.40;99.90
31046;DHT22;17711;54.018;9.300;2022-09-04T03:04:25;14.40;99.90
31046;DHT22;17711;54.018;9.300;2022-09-04T03:07:02;14.30;99.90
31046;DHT22;17711;54.018;9.300;2022-09-04T03:09:38;14.30;99.90
31046;DHT22;17711;54.018;9.300;2022-09-04T03:12:22;14.20;99.90
31046;DHT22;17711;54.018;9.300;2022-09-04T03:15:03;14.20;99.90
31046;DHT22;17711;54.018;9.300;2022-09-04T03:17:39;14.20;99.90
31046;DHT22;17711;54.018;9.300;2022-09-04T03:20:18;14.10;99.90
31046;DHT22;17711;54.018;9.300;2022-09-04T03:22:54;14.10;99.90
31046;DHT22;17711;54.018;9.300;2022-09-04T03:25:42;14.00;99.90
31046;DHT22;17711;54.018;9.300;2022-09-04T03:28:22;14.00;99.90
31046;DHT22;17711;54.018;9.300;2022-09-04T03:30:56;13.90;99.90
31046;DHT22;17711;54.018;9.300;2022-09-04T03:33:36;13.90;99.90
31046;DHT22;17711;54.018;9.300;2022-09-04T03:36:09;13.90;99.90
31046;DHT22;17711;54.018;9.300;2022-09-04T03:38:47;13.90;99.90
31046;DHT22;17711;54.018;9.300;2022-09-04T03:41:27;13.90;99.90
31046;DHT22;17711;54.018;9.300;2022-09-04T03:44:07;13.90;99.90
31046;DHT22;17711;54.018;9.300;2022-09-04T03:46:48;13.90;99.90
31046;DHT22;17711;54.018;9.300;2022-09-04T03:49:32;13.90;99.90
31046;DHT22;17711;54.018;9.300;2022-09-04T03:52:11;13.80;99.90
31046;DHT22;17711;54.018;9.300;2022-09-04T03:54:55;13.90;99.90
31046;DHT22;17711;54.018;9.300;2022-09-04T03:57:51;13.80;99.90
31046;DHT22;17711;54.018;9.300;2022-09-04T04:00:25;13.80;99.90
31046;DHT22;17711;54.018;9.300;2022-09-04T04:03:13;13.80;99.90
31046;DHT22;17711;54.018;9.300;2022-09-04T04:05:57;13.70;99.90
31046;DHT22;17711;54.018;9.300;2022-09-04T04:08:58;13.70;99.90
31046;DHT22;17711;54.018;9.300;2022-09-04T04:11:49;13.60;99.90
31046;DHT22;17711;54.018;9.300;2022-09-04T04:14:36;13.60;99.90
31046;DHT22;17711;54.018;9.300;2022-09-04T04:17:22;13.60;99.90
31046;DHT22;17711;54.018;9.300;2022-09-04T04:20:06;13.50;99.90
31046;DHT22;17711;54.018;9.300;2022-09-04T04:22:53;13.50;99.90
31046;DHT22;17711;54.018;9.300;2022-09-04T04:25:44;13.40;99.90
31046;DHT22;17711;54.018;9.300;2022-09-04T04:28:33;13.50;99.90
31046;DHT22;17711;54.018;9.300;2022-09-04T04:31:13;13.50;99.90
31046;DHT22;17711;54.018;9.300;2022-09-04T04:33:52;13.40;99.90
31046;DHT22;17711;54.018;9.300;2022-09-04T04:36:31;13.40;99.90
31046;DHT22;17711;54.018;9.300;2022-09-04T04:39:19;13.50;99.90
31046;DHT22;17711;54.018;9.300;2022-09-04T04:42:08;13.40;99.90
31046;DHT22;17711;54.018;9.300;2022-09-04T04:45:04;13.50;99.90
31046;DHT22;17711;54.018;9.300;2022-09-04T04:48:21;13.40;99.90
31046;DHT22;17711;54.018;9.300;2022-09-04T04:51:02;13.40;99.90
31046;DHT22;17711;54.018;9.300;2022-09-04T04:53:40;13.40;99.90
31046;DHT22;17711;54.018;9.300;2022-09-04T04:56:17;13.40;99.90
31046;DHT22;17711;54.018;9.300;2022-09-04T04:59:07;13.40;99.90
31046;DHT22;17711;54.018;9.300;2022-09-04T05:01:52;13.50;99.90
31046;DHT22;17711;54.018;9.300;2022-09-04T05:04:36;13.50;99.90
31046;DHT22;17711;54.018;9.300;2022-09-04T05:07:14;13.50;99.90
31046;DHT22;17711;54.018;9.300;2022-09-04T05:09:50;13.50;99.90
31046;DHT22;17711;54.018;9.300;2022-09-04T05:12:41;13.50;99.90
31046;DHT22;17711;54.018;9.300;2022-09-04T05:15:18;13.50;99.90
31046;DHT22;17711;54.018;9.300;2022-09-04T05:17:51;13.60;99.90
31046;DHT22;17711;54.018;9.300;2022-09-04T05:20:35;13.60;99.90
31046;DHT22;17711;54.018;9.300;2022-09-04T05:23:17;13.60;99.90
31046;DHT22;17711;54.018;9.300;2022-09-04T05:25:59;13.70;99.90
31046;DHT22;17711;54.018;9.300;2022-09-04T05:28:38;13.70;99.90
31046;DHT22;17711;54.018;9.300;2022-09-04T05:31:16;13.70;99.90
31046;DHT22;17711;54.018;9.300;2022-09-04T05:33:53;13.70;99.90
31046;DHT22;17711;54.018;9.300;2022-09-04T05:36:29;13.70;99.90
31046;DHT22;17711;54.018;9.300;2022-09-04T05:39:10;13.80;99.90
31046;DHT22;17711;54.018;9.300;2022-09-04T05:41:54;13.80;99.90
31046;DHT22;17711;54.018;9.300;2022-09-04T05:44:53;13.90;99.90
31046;DHT22;17711;54.018;9.300;2022-09-04T05:47:32;13.90;99.90
31046;DHT22;17711;54.018;9.300;2022-09-04T05:53:39;14.00;99.90
31046;DHT22;17711;54.018;9.300;2022-09-04T05:56:29;14.10;99.90
31046;DHT22;17711;54.018;9.300;2022-09-04T05:59:11;14.10;99.90
31046;DHT22;17711;54.018;9.300;2022-09-04T06:05:16;14.20;99.90
31046;DHT22;17711;54.018;9.300;2022-09-04T06:07:55;14.20;99.90
31046;DHT22;17711;54.018;9.300;2022-09-04T06:10:34;14.30;99.90
31046;DHT22;17711;54.018;9.300;2022-09-04T06:13:23;14.30;99.90
31046;DHT22;17711;54.018;9.300;2022-09-04T06:16:11;14.50;99.90
31046;DHT22;17711;54.018;9.300;2022-09-04T06:19:07;14.50;99.90
31046;DHT22;17711;54.018;9.300;2022-09-04T06:22:13;14.70;99.90
31046;DHT22;17711;54.018;9.300;2022-09-04T06:27:53;14.80;99.90
31046;DHT22;17711;54.018;9.300;2022-09-04T06:30:27;14.90;99.90
31046;DHT22;17711;54.018;9.300;2022-09-04T06:33:20;15.00;99.90
31046;DHT22;17711;54.018;9.300;2022-09-04T06:39:07;15.20;99.90
31046;DHT22;17711;54.018;9.300;2022-09-04T06:41:54;15.40;99.90
31046;DHT22;17711;54.018;9.300;2022-09-04T06:44:32;15.50;99.90
31046;DHT22;17711;54.018;9.300;2022-09-04T06:47:13;15.60;99.90
31046;DHT22;17711;54.018;9.300;2022-09-04T06:49:54;15.70;99.90
31046;DHT22;17711;54.018;9.300;2022-09-04T06:52:30;15.80;99.90
31046;DHT22;17711;54.018;9.300;2022-09-04T06:55:11;16.00;99.90
31046;DHT22;17711;54.018;9.300;2022-09-04T06:57:54;16.10;99.90
31046;DHT22;17711;54.018;9.300;2022-09-04T07:00:29;16.20;99.90
31046;DHT22;17711;54.018;9.300;2022-09-04T07:03:22;16.30;99.90
31046;DHT22;17711;54.018;9.300;2022-09-04T07:05:56;16.30;99.90
31046;DHT22;17711;54.018;9.300;2022-09-04T07:08:36;16.40;99.90
31046;DHT22;17711;54.018;9.300;2022-09-04T07:11:18;16.60;99.90
31046;DHT22;17711;54.018;9.300;2022-09-04T07:16:59;16.90;99.90
31046;DHT22;17711;54.018;9.300;2022-09-04T07:19:44;17.10;99.90
31046;DHT22;17711;54.018;9.300;2022-09-04T07:25:16;17.30;99.90
31046;DHT22;17711;54.018;9.300;2022-09-04T07:28:10;17.50;99.90
31046;DHT22;17711;54.018;9.300;2022-09-04T07:30:44;17.70;99.90
31046;DHT22;17711;54.018;9.300;2022-09-04T07:33:20;17.80;99.90
31046;DHT22;17711;54.018;9.300;2022-09-04T07:35:57;18.00;99.90
31046;DHT22;17711;54.018;9.300;2022-09-04T07:38:33;18.10;99.90
31046;DHT22;17711;54.018;9.300;2022-09-04T07:41:08;18.40;99.90
31046;DHT22;17711;54.018;9.300;2022-09-04T07:43:49;18.60;99.90
31046;DHT22;17711;54.018;9.300;2022-09-04T07:46:26;18.70;99.90
31046;DHT22;17711;54.018;9.300;2022-09-04T07:49:03;18.80;99.90
31046;DHT22;17711;54.018;9.300;2022-09-04T07:51:42;18.90;99.90
31046;DHT22;17711;54.018;9.300;2022-09-04T07:54:48;19.10;99.90
31046;DHT22;17711;54.018;9.300;2022-09-04T08:00:18;19.80;96.40
31046;DHT22;17711;54.018;9.300;2022-09-04T08:03:06;20.50;97.90
31046;DHT22;17711;54.018;9.300;2022-09-04T08:05:44;21.60;99.90
31046;DHT22;17711;54.018;9.300;2022-09-04T08:11:59;22.90;86.20
31046;DHT22;17711;54.018;9.300;2022-09-04T08:14:51;24.20;76.60
31046;DHT22;17711;54.018;9.300;2022-09-04T08:17:44;25.50;70.00
31046;DHT22;17711;54.018;9.300;2022-09-04T08:20:29;26.50;61.60
31046;DHT22;17711;54.018;9.300;2022-09-04T08:23:15;27.00;57.00
31046;DHT22;17711;54.018;9.300;2022-09-04T08:25:56;27.70;60.30
31046;DHT22;17711;54.018;9.300;2022-09-04T08:28:45;28.80;51.90
31046;DHT22;17711;54.018;9.300;2022-09-04T08:31:28;29.70;50.80
31046;DHT22;17711;54.018;9.300;2022-09-04T08:37:23;31.50;44.60
31046;DHT22;17711;54.018;9.300;2022-09-04T08:40:11;32.20;41.20
31046;DHT22;17711;54.018;9.300;2022-09-04T08:43:29;32.50;40.70
31046;DHT22;17711;54.018;9.300;2022-09-04T08:49:21;33.40;37.90
31046;DHT22;17711;54.018;9.300;2022-09-04T08:55:38;34.10;37.30
31046;DHT22;17711;54.018;9.300;2022-09-04T09:08:05;35.30;33.40
31046;DHT22;17711;54.018;9.300;2022-09-04T09:14:21;35.40;33.10
31046;DHT22;17711;54.018;9.300;2022-09-04T09:17:11;34.10;32.60
31046;DHT22;17711;54.018;9.300;2022-09-04T09:19:45;33.20;34.90
31046;DHT22;17711;54.018;9.300;2022-09-04T09:22:35;32.90;37.60
31046;DHT22;17711;54.018;9.300;2022-09-04T09:25:15;32.50;36.60
31046;DHT22;17711;54.018;9.300;2022-09-04T09:28:19;31.40;37.30
31046;DHT22;17711;54.018;9.300;2022-09-04T09:31:31;30.80;40.80
31046;DHT22;17711;54.018;9.300;2022-09-04T09:44:00;31.30;41.00
31046;DHT22;17711;54.018;9.300;2022-09-04T09:46:56;30.90;41.60
31046;DHT22;17711;54.018;9.300;2022-09-04T09:50:03;30.10;43.20
31046;DHT22;17711;54.018;9.300;2022-09-04T09:53:11;29.70;45.20
31046;DHT22;17711;54.018;9.300;2022-09-04T09:55:49;29.50;46.20
31046;DHT22;17711;54.018;9.300;2022-09-04T09:58:41;30.00;46.70
31046;DHT22;17711;54.018;9.300;2022-09-04T10:01:29;31.70;42.10
31046;DHT22;17711;54.018;9.300;2022-09-04T10:11:15;33.90;36.90
31046;DHT22;17711;54.018;9.300;2022-09-04T10:14:16;35.40;34.60
31046;DHT22;17711;54.018;9.300;2022-09-04T10:32:49;37.60;28.70
31046;DHT22;17711;54.018;9.300;2022-09-04T10:35:23;38.00;28.40
31046;DHT22;17711;54.018;9.300;2022-09-04T10:38:05;37.50;29.60
31046;DHT22;17711;54.018;9.300;2022-09-04T10:40:46;37.40;27.50
31046;DHT22;17711;54.018;9.300;2022-09-04T10:46:45;35.90;30.20
31046;DHT22;17711;54.018;9.300;2022-09-04T10:52:47;34.30;32.30
31046;DHT22;17711;54.018;9.300;2022-09-04T10:58:31;34.40;32.10
31046;DHT22;17711;54.018;9.300;2022-09-04T11:01:12;33.90;32.50
31046;DHT22;17711;54.018;9.300;2022-09-04T11:04:03;33.60;33.10
31046;DHT22;17711;54.018;9.300;2022-09-04T11:07:04;33.60;34.80
31046;DHT22;17711;54.018;9.300;2022-09-04T11:13:25;33.00;34.60
31046;DHT22;17711;54.018;9.300;2022-09-04T11:16:17;33.50;35.00
31046;DHT22;17711;54.018;9.300;2022-09-04T11:19:27;34.10;34.10
31046;DHT22;17711;54.018;9.300;2022-09-04T11:32:28;36.10;31.40
31046;DHT22;17711;54.018;9.300;2022-09-04T11:35:26;36.10;29.50
31046;DHT22;17711;54.018;9.300;2022-09-04T11:38:08;37.00;30.80
31046;DHT22;17711;54.018;9.300;2022-09-04T11:41:21;37.70;28.80
31046;DHT22;17711;54.018;9.300;2022-09-04T11:44:20;38.10;27.10
31046;DHT22;17711;54.018;9.300;2022-09-04T11:47:05;38.40;27.60
31046;DHT22;17711;54.018;9.300;2022-09-04T11:49:56;38.40;26.90
31046;DHT22;17711;54.018;9.300;2022-09-04T11:52:40;38.00;26.70
31046;DHT22;17711;54.018;9.300;2022-09-04T11:55:25;38.00;27.70
31046;DHT22;17711;54.018;9.300;2022-09-04T11:58:32;38.20;26.40
31046;DHT22;17711;54.018;9.300;2022-09-04T12:01:16;38.20;27.90
31046;DHT22;17711;54.018;9.300;2022-09-04T12:04:23;38.80;26.70
31046;DHT22;17711;54.018;9.300;2022-09-04T12:07:19;39.50;24.70
31046;DHT22;17711;54.018;9.300;2022-09-04T12:10:10;39.80;25.50
31046;DHT22;17711;54.018;9.300;2022-09-04T12:13:05;39.70;25.70
31046;DHT22;17711;54.018;9.300;2022-09-04T12:22:25;40.20;22.80
31046;DHT22;17711;54.018;9.300;2022-09-04T12:25:13;40.10;24.60
31046;DHT22;17711;54.018;9.300;2022-09-04T12:28:14;40.20;23.40
31046;DHT22;17711;54.018;9.300;2022-09-04T12:30:58;40.60;24.20
31046;DHT22;17711;54.018;9.300;2022-09-04T12:33:59;41.20;23.20
31046;DHT22;17711;54.018;9.300;2022-09-04T12:36:49;41.20;22.90
31046;DHT22;17711;54.018;9.300;2022-09-04T12:42:33;40.80;25.60
31046;DHT22;17711;54.018;9.300;2022-09-04T12:45:14;41.10;21.90
31046;DHT22;17711;54.018;9.300;2022-09-04T12:47:55;41.00;23.30
31046;DHT22;17711;54.018;9.300;2022-09-04T12:50:33;40.90;23.90
31046;DHT22;17711;54.018;9.300;2022-09-04T12:53:20;40.80;22.70
31046;DHT22;17711;54.018;9.300;2022-09-04T12:56:02;41.10;23.60
31046;DHT22;17711;54.018;9.300;2022-09-04T12:58:46;41.40;23.10
31046;DHT22;17711;54.018;9.300;2022-09-04T13:01:27;40.70;22.40
31046;DHT22;17711;54.018;9.300;2022-09-04T13:04:06;40.20;22.80
31046;DHT22;17711;54.018;9.300;2022-09-04T13:06:44;39.60;23.90
31046;DHT22;17711;54.018;9.300;2022-09-04T13:09:21;39.10;25.00
31046;DHT22;17711;54.018;9.300;2022-09-04T13:12:03;38.80;25.20
31046;DHT22;17711;54.018;9.300;2022-09-04T13:15:02;38.90;25.80
31046;DHT22;17711;54.018;9.300;2022-09-04T13:17:44;39.30;23.80
31046;DHT22;17711;54.018;9.300;2022-09-04T13:20:22;39.30;24.60
31046;DHT22;17711;54.018;9.300;2022-09-04T13:23:02;39.00;23.30
31046;DHT22;17711;54.018;9.300;2022-09-04T13:25:48;38.70;23.60
31046;DHT22;17711;54.018;9.300;2022-09-04T13:28:27;38.10;25.40
31046;DHT22;17711;54.018;9.300;2022-09-04T13:31:29;37.90;25.40
31046;DHT22;17711;54.018;9.300;2022-09-04T13:34:06;37.80;26.00
31046;DHT22;17711;54.018;9.300;2022-09-04T13:36:49;37.70;26.20
31046;DHT22;17711;54.018;9.300;2022-09-04T13:42:51;37.30;27.30
31046;DHT22;17711;54.018;9.300;2022-09-04T13:45:27;36.80;26.30
31046;DHT22;17711;54.018;9.300;2022-09-04T13:48:00;36.50;26.90
31046;DHT22;17711;54.018;9.300;2022-09-04T13:50:35;36.10;26.40
31046;DHT22;17711;54.018;9.300;2022-09-04T13:53:10;36.10;28.00
31046;DHT22;17711;54.018;9.300;2022-09-04T13:55:45;36.10;26.80
31046;DHT22;17711;54.018;9.300;2022-09-04T13:58:18;35.90;27.50
31046;DHT22;17711;54.018;9.300;2022-09-04T14:00:51;35.90;27.40
31046;DHT22;17711;54.018;9.300;2022-09-04T14:03:29;36.00;28.00
31046;DHT22;17711;54.018;9.300;2022-09-04T14:06:01;36.10;27.50
31046;DHT22;17711;54.018;9.300;2022-09-04T14:08:31;36.00;26.90
31046;DHT22;17711;54.018;9.300;2022-09-04T14:11:48;35.60;26.50
31046;DHT22;17711;54.018;9.300;2022-09-04T14:17:13;34.90;28.80
31046;DHT22;17711;54.018;9.300;2022-09-04T14:19:56;34.50;29.60
31046;DHT22;17711;54.018;9.300;2022-09-04T14:22:36;34.30;29.00
31046;DHT22;17711;54.018;9.300;2022-09-04T14:25:13;34.00;29.20
31046;DHT22;17711;54.018;9.300;2022-09-04T14:27:51;33.60;30.90
31046;DHT22;17711;54.018;9.300;2022-09-04T14:30:23;33.40;29.20
31046;DHT22;17711;54.018;9.300;2022-09-04T14:33:06;33.30;30.60
31046;DHT22;17711;54.018;9.300;2022-09-04T14:35:53;33.30;30.00
31046;DHT22;17711;54.018;9.300;2022-09-04T14:38:40;33.40;30.70
31046;DHT22;17711;54.018;9.300;2022-09-04T14:41:30;33.60;30.00
31046;DHT22;17711;54.018;9.300;2022-09-04T14:44:13;33.50;28.90
31046;DHT22;17711;54.018;9.300;2022-09-04T14:46:52;33.80;30.80
31046;DHT22;17711;54.018;9.300;2022-09-04T14:49:27;34.10;28.50
31046;DHT22;17711;54.018;9.300;2022-09-04T14:52:01;34.40;27.90
31046;DHT22;17711;54.018;9.300;2022-09-04T14:54:33;34.30;28.90
31046;DHT22;17711;54.018;9.300;2022-09-04T14:57:15;34.30;29.50
31046;DHT22;17711;54.018;9.300;2022-09-04T14:59:49;34.30;28.10
31046;DHT22;17711;54.018;9.300;2022-09-04T15:02:30;34.00;28.50
31046;DHT22;17711;54.018;9.300;2022-09-04T15:05:08;34.00;30.80
31046;DHT22;17711;54.018;9.300;2022-09-04T15:07:54;34.00;29.00
31046;DHT22;17711;54.018;9.300;2022-09-04T15:10:30;33.80;29.20
31046;DHT22;17711;54.018;9.300;2022-09-04T15:16:13;33.30;30.90
31046;DHT22;17711;54.018;9.300;2022-09-04T15:18:57;33.10;30.00
31046;DHT22;17711;54.018;9.300;2022-09-04T15:21:41;32.70;29.80
31046;DHT22;17711;54.018;9.300;2022-09-04T15:24:16;32.30;30.80
31046;DHT22;17711;54.018;9.300;2022-09-04T15:26:59;31.90;31.70
31046;DHT22;17711;54.018;9.300;2022-09-04T15:29:36;31.50;32.80
31046;DHT22;17711;54.018;9.300;2022-09-04T15:32:08;31.20;31.90
31046;DHT22;17711;54.018;9.300;2022-09-04T15:34:40;31.10;33.30
31046;DHT22;17711;54.018;9.300;2022-09-04T15:37:19;31.10;33.80
31046;DHT22;17711;54.018;9.300;2022-09-04T15:39:56;30.90;33.60
31046;DHT22;17711;54.018;9.300;2022-09-04T15:42:42;30.70;33.80
31046;DHT22;17711;54.018;9.300;2022-09-04T15:45:22;30.50;32.80
31046;DHT22;17711;54.018;9.300;2022-09-04T15:48:28;30.30;35.10
31046;DHT22;17711;54.018;9.300;2022-09-04T15:51:15;29.90;36.80
31046;DHT22;17711;54.018;9.300;2022-09-04T15:54:05;29.50;36.90
31046;DHT22;17711;54.018;9.300;2022-09-04T15:56:39;29.10;36.50
31046;DHT22;17711;54.018;9.300;2022-09-04T15:59:14;28.70;36.90
31046;DHT22;17711;54.018;9.300;2022-09-04T16:01:49;28.40;38.30
31046;DHT22;17711;54.018;9.300;2022-09-04T16:04:31;28.10;38.60
31046;DHT22;17711;54.018;9.300;2022-09-04T16:07:21;27.90;39.00
31046;DHT22;17711;54.018;9.300;2022-09-04T16:10:08;27.70;41.60
31046;DHT22;17711;54.018;9.300;2022-09-04T16:12:41;27.50;40.50
31046;DHT22;17711;54.018;9.300;2022-09-04T16:15:21;27.40;40.50
31046;DHT22;17711;54.018;9.300;2022-09-04T16:17:52;27.30;41.50
31046;DHT22;17711;54.018;9.300;2022-09-04T16:20:28;27.10;40.80
31046;DHT22;17711;54.018;9.300;2022-09-04T16:23:03;27.00;41.50
31046;DHT22;17711;54.018;9.300;2022-09-04T16:25:38;26.80;42.90
31046;DHT22;17711;54.018;9.300;2022-09-04T16:28:11;26.70;43.00
31046;DHT22;17711;54.018;9.300;2022-09-04T16:30:44;26.50;43.90
31046;DHT22;17711;54.018;9.300;2022-09-04T16:33:22;26.30;43.90
31046;DHT22;17711;54.018;9.300;2022-09-04T16:35:59;26.10;44.30
31046;DHT22;17711;54.018;9.300;2022-09-04T16:38:32;25.90;45.80
31046;DHT22;17711;54.018;9.300;2022-09-04T16:41:12;25.70;46.20
31046;DHT22;17711;54.018;9.300;2022-09-04T16:44:07;25.50;46.00
31046;DHT22;17711;54.018;9.300;2022-09-04T16:46:41;25.30;46.80
31046;DHT22;17711;54.018;9.300;2022-09-04T16:49:19;25.00;47.20
31046;DHT22;17711;54.018;9.300;2022-09-04T16:51:56;24.90;47.30
31046;DHT22;17711;54.018;9.300;2022-09-04T16:54:31;24.70;48.00
31046;DHT22;17711;54.018;9.300;2022-09-04T16:57:11;24.60;47.60
31046;DHT22;17711;54.018;9.300;2022-09-04T16:59:42;24.50;50.00
31046;DHT22;17711;54.018;9.300;2022-09-04T17:02:17;24.30;49.40
31046;DHT22;17711;54.018;9.300;2022-09-04T17:05:00;24.20;49.50
31046;DHT22;17711;54.018;9.300;2022-09-04T17:07:39;24.10;49.70
31046;DHT22;17711;54.018;9.300;2022-09-04T17:10:25;24.10;50.20
31046;DHT22;17711;54.018;9.300;2022-09-04T17:13:07;24.00;50.10
31046;DHT22;17711;54.018;9.300;2022-09-04T17:15:46;23.80;49.60
31046;DHT22;17711;54.018;9.300;2022-09-04T17:18:21;23.80;50.30
31046;DHT22;17711;54.018;9.300;2022-09-04T17:20:57;23.70;50.60
31046;DHT22;17711;54.018;9.300;2022-09-04T17:23:52;23.60;51.80
31046;DHT22;17711;54.018;9.300;2022-09-04T17:26:48;23.50;50.90
31046;DHT22;17711;54.018;9.300;2022-09-04T17:29:44;23.40;52.30
31046;DHT22;17711;54.018;9.300;2022-09-04T17:32:19;23.40;52.20
31046;DHT22;17711;54.018;9.300;2022-09-04T17:35:23;23.20;52.50
31046;DHT22;17711;54.018;9.300;2022-09-04T17:38:19;23.10;52.10
31046;DHT22;17711;54.018;9.300;2022-09-04T17:41:18;23.00;52.20
31046;DHT22;17711;54.018;9.300;2022-09-04T17:44:22;22.80;52.70
31046;DHT22;17711;54.018;9.300;2022-09-04T17:47:06;22.70;53.00
31046;DHT22;17711;54.018;9.300;2022-09-04T17:49:41;22.70;53.40
31046;DHT22;17711;54.018;9.300;2022-09-04T17:52:20;22.50;54.00
31046;DHT22;17711;54.018;9.300;2022-09-04T17:54:50;22.30;54.90
31046;DHT22;17711;54.018;9.300;2022-09-04T17:57:24;22.30;55.30
31046;DHT22;17711;54.018;9.300;2022-09-04T18:00:04;22.10;55.40
31046;DHT22;17711;54.018;9.300;2022-09-04T18:02:41;22.00;55.60
31046;DHT22;17711;54.018;9.300;2022-09-04T18:05:17;21.90;55.50
31046;DHT22;17711;54.018;9.300;2022-09-04T18:07:51;21.80;56.10
31046;DHT22;17711;54.018;9.300;2022-09-04T18:10:47;21.70;56.30
31046;DHT22;17711;54.018;9.300;2022-09-04T18:13:25;21.70;56.50
31046;DHT22;17711;54.018;9.300;2022-09-04T18:16:13;21.50;57.10
31046;DHT22;17711;54.018;9.300;2022-09-04T18:18:49;21.30;58.30
31046;DHT22;17711;54.018;9.300;2022-09-04T18:21:20;21.20;58.30
31046;DHT22;17711;54.018;9.300;2022-09-04T18:23:56;21.10;59.10
31046;DHT22;17711;54.018;9.300;2022-09-04T18:26:33;21.00;59.90
31046;DHT22;17711;54.018;9.300;2022-09-04T18:32:37;20.90;61.30
31046;DHT22;17711;54.018;9.300;2022-09-04T18:35:50;20.70;62.60
31046;DHT22;17711;54.018;9.300;2022-09-04T18:38:47;20.70;62.80
31046;DHT22;17711;54.018;9.300;2022-09-04T18:41:51;20.70;63.60
31046;DHT22;17711;54.018;9.300;2022-09-04T18:44:49;20.60;64.60
31046;DHT22;17711;54.018;9.300;2022-09-04T18:47:39;20.50;66.10
31046;DHT22;17711;54.018;9.300;2022-09-04T18:50:37;20.50;66.70
31046;DHT22;17711;54.018;9.300;2022-09-04T18:53:31;20.40;68.20
31046;DHT22;17711;54.018;9.300;2022-09-04T18:56:06;20.30;69.20
31046;DHT22;17711;54.018;9.300;2022-09-04T18:58:55;20.30;69.50
31046;DHT22;17711;54.018;9.300;2022-09-04T19:01:29;20.30;70.30
31046;DHT22;17711;54.018;9.300;2022-09-04T19:04:20;20.30;70.20
31046;DHT22;17711;54.018;9.300;2022-09-04T19:06:58;20.30;71.30
31046;DHT22;17711;54.018;9.300;2022-09-04T19:12:53;20.30;71.80
31046;DHT22;17711;54.018;9.300;2022-09-04T19:15:47;20.30;72.10
31046;DHT22;17711;54.018;9.300;2022-09-04T19:18:23;20.40;74.40
31046;DHT22;17711;54.018;9.300;2022-09-04T19:21:19;20.30;72.80
31046;DHT22;17711;54.018;9.300;2022-09-04T19:23:54;20.30;73.00
31046;DHT22;17711;54.018;9.300;2022-09-04T19:26:33;20.20;73.60